sensor_id;sensor_type;location;lat;lon;timestamp;temperature;humidity
7846;DHT22;3968;51.424;6.788;2023-02-08T00:00:48;1.80;99.90
7846;DHT22;3968;51.424;6.788;2023-02-08T00:03:14;1.80;99.90
7846;DHT22;3968;51.424;6.788;2023-02-08T00:05:39;1.80;99.90
7846;DHT22;3968;51.424;6.788;2023-02-08T00:08:05;1.80;99.90
7846;DHT22;3968;51.424;6.788;2023-02-08T00:10:32;1.70;99.90
7846;DHT22;3968;51.424;6.788;2023-02-08T00:12:57;1.70;99.90
7846;DHT22;3968;51.424;6.788;2023-02-08T00:15:23;1.70;99.90
7846;DHT22;3968;51.424;6.788;2023-02-08T00:17:49;1.60;99.90
7846;DHT22;3968;51.424;6.788;2023-02-08T00:20:14;1.60;99.90
7846;DHT22;3968;51.424;6.788;2023-02-08T00:22:40;1.50;99.90
7846;DHT22;3968;51.424;6.788;2023-02-08T00:25:06;1.50;99.90
7846;DHT22;3968;51.424;6.788;2023-02-08T00:27:32;1.60;99.90
7846;DHT22;3968;51.424;6.788;2023-02-08T00:29:58;1.50;99.90
7846;DHT22;3968;51.424;6.788;2023-02-08T00:32:24;1.60;99.90
7846;DHT22;3968;51.424;6.788;2023-02-08T00:34:49;1.60;99.90
7846;DHT22;3968;51.424;6.788;2023-02-08T00:37:18;1.60;99.90
7846;DHT22;3968;51.424;6.788;2023-02-08T00:39:43;1.60;99.90
7846;DHT22;3968;51.424;6.788;2023-02-08T00:42:09;1.60;99.90
7846;DHT22;3968;51.424;6.788;2023-02-08T00:44:35;1.60;99.90
7846;DHT22;3968;51.424;6.788;2023-02-08T00:47:00;1.50;99.90
7846;DHT22;3968;51.424;6.788;2023-02-08T00:49:26;1.50;99.90
7846;DHT22;3968;51.424;6.788;2023-02-08T00:51:51;1.50;99.90
7846;DHT22;3968;51.424;6.788;2023-02-08T00:54:18;1.50;99.90
7846;DHT22;3968;51.424;6.788;2023-02-08T00:56:45;1.60;99.90
7846;DHT22;3968;51.424;6.788;2023-02-08T00:59:11;1.50;99.90
7846;DHT22;3968;51.424;6.788;2023-02-08T01:01:37;1.60;99.90
7846;DHT22;3968;51.424;6.788;2023-02-08T01:04:04;1.50;99.90
7846;DHT22;3968;51.424;6.788;2023-02-08T01:06:29;1.50;99.90
7846;DHT22;3968;51.424;6.788;2023-02-08T01:08:55;1.50;99.90
7846;DHT22;3968;51.424;6.788;2023-02-08T01:11:22;1.50;99.90
7846;DHT22;3968;51.424;6.788;2023-02-08T01:13:51;1.50;99.90
7846;DHT22;3968;51.424;6.788;2023-02-08T01:16:21;1.50;99.90
7846;DHT22;3968;51.424;6.788;2023-02-08T01:18:49;1.50;99.90
7846;DHT22;3968;51.424;6.788;2023-02-08T01:21:26;1.50;99.90
7846;DHT22;3968;51.424;6.788;2023-02-08T01:23:52;1.50;99.90
7846;DHT22;3968;51.424;6.788;2023-02-08T01:26:18;1.50;99.90
7846;DHT22;3968;51.424;6.788;2023-02-08T01:28:45;1.40;99.90
7846;DHT22;3968;51.424;6.788;2023-02-08T01:31:18;1.40;99.90
7846;DHT22;3968;51.424;6.788;2023-02-08T01:33:44;1.40;99.90
7846;DHT22;3968;51.424;6.788;2023-02-08T01:36:10;1.40;99.90
7846;DHT22;3968;51.424;6.788;2023-02-08T01:38:36;1.30;99.90
7846;DHT22;3968;51.424;6.788;2023-02-08T01:41:03;1.30;99.90
7846;DHT22;3968;51.424;6.788;2023-02-08T01:43:32;1.30;99.90
7846;DHT22;3968;51.424;6.788;2023-02-08T01:45:58;1.30;99.90
7846;DHT22;3968;51.424;6.788;2023-02-08T01:48:36;1.30;99.90
7846;DHT22;3968;51.424;6.788;2023-02-08T01:51:07;1.30;99.90
7846;DHT22;3968;51.424;6.788;2023-02-08T01:53:35;1.30;99.90
7846;DHT22;3968;51.424;6.788;2023-02-08T01:56:07;1.30;99.90
7846;DHT22;3968;51.424;6.788;2023-02-08T01:58:37;1.30;99.90
7846;DHT22;3968;51.424;6.788;2023-02-08T02:01:03;1.30;99.90
7846;DHT22;3968;51.424;6.788;2023-02-08T02:03:29;1.30;99.90
7846;DHT22;3968;51.424;6.788;2023-02-08T02:06:02;1.20;99.90
7846;DHT22;3968;51.424;6.788;2023-02-08T02:08:30;1.20;99.90
7846;DHT22;3968;51.424;6.788;2023-02-08T02:10:56;1.20;99.90
7846;DHT22;3968;51.424;6.788;2023-02-08T02:13:25;1.30;99.90
7846;DHT22;3968;51.424;6.788;2023-02-08T02:15:51;1.20;99.90
7846;DHT22;3968;51.424;6.788;2023-02-08T02:18:22;1.20;99.90
7846;DHT22;3968;51.424;6.788;2023-02-08T02:24:22;1.30;99.90
7846;DHT22;3968;51.424;6.788;2023-02-08T02:35:24;1.20;99.90
7846;DHT22;3968;51.424;6.788;2023-02-08T02:43:45;1.20;99.90
7846;DHT22;3968;51.424;6.788;2023-02-08T02:49:26;1.30;99.90
7846;DHT22;3968;51.424;6.788;2023-02-08T02:52:01;1.20;99.90
7846;DHT22;3968;51.424;6.788;2023-02-08T02:54:41;1.10;99.90
7846;DHT22;3968;51.424;6.788;2023-02-08T02:57:13;1.10;99.90
7846;DHT22;3968;51.424;6.788;2023-02-08T02:59:41;1.20;99.90
7846;DHT22;3968;51.424;6.788;2023-02-08T03:02:08;1.20;99.90
7846;DHT22;3968;51.424;6.788;2023-02-08T03:07:13;1.20;99.90
7846;DHT22;3968;51.424;6.788;2023-02-08T03:12:54;1.20;99.90
7846;DHT22;3968;51.424;6.788;2023-02-08T03:20:33;1.10;99.90
7846;DHT22;3968;51.424;6.788;2023-02-08T03:23:01;1.10;99.90
7846;DHT22;3968;51.424;6.788;2023-02-08T03:28:39;1.10;99.90
7846;DHT22;3968;51.424;6.788;2023-02-08T03:34:07;1.10;99.90
7846;DHT22;3968;51.424;6.788;2023-02-08T03:39:16;1.10;99.90
7846;DHT22;3968;51.424;6.788;2023-02-08T03:41:46;1.10;99.90
7846;DHT22;3968;51.424;6.788;2023-02-08T03:46:59;1.10;99.90
7846;DHT22;3968;51.424;6.788;2023-02-08T03:49:30;1.10;99.90
7846;DHT22;3968;51.424;6.788;2023-02-08T03:52:00;1.10;99.90
7846;DHT22;3968;51.424;6.788;2023-02-08T03:54:29;1.10;99.90
7846;DHT22;3968;51.424;6.788;2023-02-08T03:59:34;1.00;99.90
7846;DHT22;3968;51.424;6.788;2023-02-08T04:02:02;1.10;99.90
7846;DHT22;3968;51.424;6.788;2023-02-08T04:04:33;1.10;99.90
7846;DHT22;3968;51.424;6.788;2023-02-08T04:07:00;1.10;99.90
7846;DHT22;3968;51.424;6.788;2023-02-08T04:09:25;1.00;99.90
7846;DHT22;3968;51.424;6.788;2023-02-08T04:11:51;1.00;99.90
7846;DHT22;3968;51.424;6.788;2023-02-08T04:14:17;1.10;99.90
7846;DHT22;3968;51.424;6.788;2023-02-08T04:16:42;1.00;99.90
7846;DHT22;3968;51.424;6.788;2023-02-08T04:19:08;1.00;99.90
7846;DHT22;3968;51.424;6.788;2023-02-08T04:21:33;1.00;99.90
7846;DHT22;3968;51.424;6.788;2023-02-08T04:23:59;1.00;99.90
7846;DHT22;3968;51.424;6.788;2023-02-08T04:26:25;0.90;99.90
7846;DHT22;3968;51.424;6.788;2023-02-08T04:28:51;0.90;99.90
7846;DHT22;3968;51.424;6.788;2023-02-08T04:31:16;0.80;99.90
7846;DHT22;3968;51.424;6.788;2023-02-08T04:33:42;0.80;99.90
7846;DHT22;3968;51.424;6.788;2023-02-08T04:36:08;0.80;99.90
7846;DHT22;3968;51.424;6.788;2023-02-08T04:38:34;0.70;99.90
7846;DHT22;3968;51.424;6.788;2023-02-08T04:40:59;0.80;99.90
7846;DHT22;3968;51.424;6.788;2023-02-08T04:43:25;0.80;99.90
7846;DHT22;3968;51.424;6.788;2023-02-08T04:45:51;0.80;99.90
7846;DHT22;3968;51.424;6.788;2023-02-08T04:48:17;0.90;99.90
7846;DHT22;3968;51.424;6.788;2023-02-08T04:50:43;0.80;99.90
7846;DHT22;3968;51.424;6.788;2023-02-08T04:53:09;0.80;99.90
7846;DHT22;3968;51.424;6.788;2023-02-08T04:55:35;0.80;99.90
7846;DHT22;3968;51.424;6.788;2023-02-08T04:58:00;0.70;99.90
7846;DHT22;3968;51.424;6.788;2023-02-08T05:00:26;0.70;99.90
7846;DHT22;3968;51.424;6.788;2023-02-08T05:02:53;0.60;99.90
7846;DHT22;3968;51.424;6.788;2023-02-08T05:05:19;0.60;99.90
7846;DHT22;3968;51.424;6.788;2023-02-08T05:07:44;0.70;99.90
7846;DHT22;3968;51.424;6.788;2023-02-08T05:10:10;0.70;99.90
7846;DHT22;3968;51.424;6.788;2023-02-08T05:12:36;0.70;99.90
7846;DHT22;3968;51.424;6.788;2023-02-08T05:15:02;0.70;99.90
7846;DHT22;3968;51.424;6.788;2023-02-08T05:17:27;0.80;99.90
7846;DHT22;3968;51.424;6.788;2023-02-08T05:19:53;0.80;99.90
7846;DHT22;3968;51.424;6.788;2023-02-08T05:22:19;0.80;99.90
7846;DHT22;3968;51.424;6.788;2023-02-08T05:24:46;0.80;99.90
7846;DHT22;3968;51.424;6.788;2023-02-08T05:27:12;0.80;99.90
7846;DHT22;3968;51.424;6.788;2023-02-08T05:29:37;0.90;99.90
7846;DHT22;3968;51.424;6.788;2023-02-08T05:32:03;0.80;99.90
7846;DHT22;3968;51.424;6.788;2023-02-08T05:34:29;0.80;99.90
7846;DHT22;3968;51.424;6.788;2023-02-08T05:36:54;0.90;99.90
7846;DHT22;3968;51.424;6.788;2023-02-08T05:39:20;0.90;99.90
7846;DHT22;3968;51.424;6.788;2023-02-08T05:41:45;0.80;99.90
7846;DHT22;3968;51.424;6.788;2023-02-08T05:44:11;0.80;99.90
7846;DHT22;3968;51.424;6.788;2023-02-08T05:46:37;0.80;99.90
7846;DHT22;3968;51.424;6.788;2023-02-08T05:49:02;0.80;99.90
7846;DHT22;3968;51.424;6.788;2023-02-08T05:51:28;0.80;99.90
7846;DHT22;3968;51.424;6.788;2023-02-08T05:53:53;0.80;99.90
7846;DHT22;3968;51.424;6.788;2023-02-08T05:56:19;0.90;99.90
7846;DHT22;3968;51.424;6.788;2023-02-08T05:58:45;0.90;99.90
7846;DHT22;3968;51.424;6.788;2023-02-08T06:01:12;0.90;99.90
7846;DHT22;3968;51.424;6.788;2023-02-08T06:03:39;0.90;99.90
7846;DHT22;3968;51.424;6.788;2023-02-08T06:06:05;0.90;99.90
7846;DHT22;3968;51.424;6.788;2023-02-08T06:08:32;0.90;99.90
7846;DHT22;3968;51.424;6.788;2023-02-08T06:10:58;0.90;99.90
7846;DHT22;3968;51.424;6.788;2023-02-08T06:13:24;0.80;99.90
7846;DHT22;3968;51.424;6.788;2023-02-08T06:15:49;0.90;99.90
7846;DHT22;3968;51.424;6.788;2023-02-08T06:18:15;0.80;99.90
7846;DHT22;3968;51.424;6.788;2023-02-08T06:20:40;0.80;99.90
7846;DHT22;3968;51.424;6.788;2023-02-08T06:23:06;0.80;99.90
7846;DHT22;3968;51.424;6.788;2023-02-08T06:25:32;0.70;99.90
7846;DHT22;3968;51.424;6.788;2023-02-08T06:27:58;0.70;99.90
7846;DHT22;3968;51.424;6.788;2023-02-08T06:30:23;0.80;99.90
7846;DHT22;3968;51.424;6.788;2023-02-08T06:32:49;0.80;99.90
7846;DHT22;3968;51.424;6.788;2023-02-08T06:35:15;0.80;99.90
7846;DHT22;3968;51.424;6.788;2023-02-08T06:37:40;0.80;99.90
7846;DHT22;3968;51.424;6.788;2023-02-08T06:40:07;0.80;99.90
7846;DHT22;3968;51.424;6.788;2023-02-08T06:42:32;0.80;99.90
7846;DHT22;3968;51.424;6.788;2023-02-08T06:44:58;0.80;99.90
7846;DHT22;3968;51.424;6.788;2023-02-08T06:47:24;0.80;99.90
7846;DHT22;3968;51.424;6.788;2023-02-08T06:49:51;0.80;99.90
7846;DHT22;3968;51.424;6.788;2023-02-08T06:52:17;0.80;99.90
7846;DHT22;3968;51.424;6.788;2023-02-08T06:54:43;0.80;99.90
7846;DHT22;3968;51.424;6.788;2023-02-08T06:57:09;0.70;99.90
7846;DHT22;3968;51.424;6.788;2023-02-08T06:59:40;0.80;99.90
7846;DHT22;3968;51.424;6.788;2023-02-08T07:02:14;0.80;99.90
7846;DHT22;3968;51.424;6.788;2023-02-08T07:04:39;0.80;99.90
7846;DHT22;3968;51.424;6.788;2023-02-08T07:07:05;0.80;99.90
7846;DHT22;3968;51.424;6.788;2023-02-08T07:09:35;0.80;99.90
7846;DHT22;3968;51.424;6.788;2023-02-08T07:12:01;0.80;99.90
7846;DHT22;3968;51.424;6.788;2023-02-08T07:14:30;0.90;99.90
7846;DHT22;3968;51.424;6.788;2023-02-08T07:16:55;0.90;99.90
7846;DHT22;3968;51.424;6.788;2023-02-08T07:19:21;0.90;99.90
7846;DHT22;3968;51.424;6.788;2023-02-08T07:21:47;0.90;99.90
7846;DHT22;3968;51.424;6.788;2023-02-08T07:24:12;0.90;99.90
7846;DHT22;3968;51.424;6.788;2023-02-08T07:26:38;0.90;99.90
7846;DHT22;3968;51.424;6.788;2023-02-08T07:29:04;0.90;99.90
7846;DHT22;3968;51.424;6.788;2023-02-08T07:31:29;0.90;99.90
7846;DHT22;3968;51.424;6.788;2023-02-08T07:33:55;0.90;99.90
7846;DHT22;3968;51.424;6.788;2023-02-08T07:36:20;1.00;99.90
7846;DHT22;3968;51.424;6.788;2023-02-08T07:38:46;1.00;99.90
7846;DHT22;3968;51.424;6.788;2023-02-08T07:41:13;1.00;99.90
7846;DHT22;3968;51.424;6.788;2023-02-08T07:43:39;0.90;99.90
7846;DHT22;3968;51.424;6.788;2023-02-08T07:46:12;0.90;99.90
7846;DHT22;3968;51.424;6.788;2023-02-08T07:48:38;0.90;99.90
7846;DHT22;3968;51.424;6.788;2023-02-08T07:51:04;0.90;99.90
7846;DHT22;3968;51.424;6.788;2023-02-08T07:53:31;0.90;99.90
7846;DHT22;3968;51.424;6.788;2023-02-08T07:56:00;0.90;99.90
7846;DHT22;3968;51.424;6.788;2023-02-08T07:58:26;0.80;99.90
7846;DHT22;3968;51.424;6.788;2023-02-08T08:00:52;0.80;99.90
7846;DHT22;3968;51.424;6.788;2023-02-08T08:03:18;0.80;99.90
7846;DHT22;3968;51.424;6.788;2023-02-08T08:05:44;0.80;99.90
7846;DHT22;3968;51.424;6.788;2023-02-08T08:08:11;0.90;99.90
7846;DHT22;3968;51.424;6.788;2023-02-08T08:10:36;0.90;99.90
7846;DHT22;3968;51.424;6.788;2023-02-08T08:13:02;1.00;99.90
7846;DHT22;3968;51.424;6.788;2023-02-08T08:15:28;1.00;99.90
7846;DHT22;3968;51.424;6.788;2023-02-08T08:17:53;1.00;99.90
7846;DHT22;3968;51.424;6.788;2023-02-08T08:20:19;1.00;99.90
7846;DHT22;3968;51.424;6.788;2023-02-08T08:22:46;1.10;99.90
7846;DHT22;3968;51.424;6.788;2023-02-08T08:25:12;1.10;99.90
7846;DHT22;3968;51.424;6.788;2023-02-08T08:27:37;1.10;99.90
7846;DHT22;3968;51.424;6.788;2023-02-08T08:30:11;1.10;99.90
7846;DHT22;3968;51.424;6.788;2023-02-08T08:32:38;1.20;99.90
7846;DHT22;3968;51.424;6.788;2023-02-08T08:35:05;1.20;99.90
7846;DHT22;3968;51.424;6.788;2023-02-08T08:37:31;1.30;99.90
7846;DHT22;3968;51.424;6.788;2023-02-08T08:39:56;1.30;99.90
7846;DHT22;3968;51.424;6.788;2023-02-08T08:42:23;1.30;99.90
7846;DHT22;3968;51.424;6.788;2023-02-08T08:44:49;1.30;99.90
7846;DHT22;3968;51.424;6.788;2023-02-08T08:47:14;1.40;99.90
7846;DHT22;3968;51.424;6.788;2023-02-08T08:49:40;1.40;99.90
7846;DHT22;3968;51.424;6.788;2023-02-08T08:52:08;1.40;99.90
7846;DHT22;3968;51.424;6.788;2023-02-08T08:54:34;1.50;99.90
7846;DHT22;3968;51.424;6.788;2023-02-08T08:57:01;1.50;99.90
7846;DHT22;3968;51.424;6.788;2023-02-08T08:59:26;1.60;99.90
7846;DHT22;3968;51.424;6.788;2023-02-08T09:01:52;1.60;99.90
7846;DHT22;3968;51.424;6.788;2023-02-08T09:04:18;1.60;99.90
7846;DHT22;3968;51.424;6.788;2023-02-08T09:06:50;1.70;99.90
7846;DHT22;3968;51.424;6.788;2023-02-08T09:09:16;1.70;99.90
7846;DHT22;3968;51.424;6.788;2023-02-08T09:11:42;1.70;99.90
7846;DHT22;3968;51.424;6.788;2023-02-08T09:14:08;1.80;99.90
7846;DHT22;3968;51.424;6.788;2023-02-08T09:16:34;1.80;99.90
7846;DHT22;3968;51.424;6.788;2023-02-08T09:19:04;1.90;99.90
7846;DHT22;3968;51.424;6.788;2023-02-08T09:21:30;1.90;99.90
7846;DHT22;3968;51.424;6.788;2023-02-08T09:23:56;2.00;99.90
7846;DHT22;3968;51.424;6.788;2023-02-08T09:26:22;2.00;99.90
7846;DHT22;3968;51.424;6.788;2023-02-08T09:28:47;2.10;99.90
7846;DHT22;3968;51.424;6.788;2023-02-08T09:31:20;2.10;99.90
7846;DHT22;3968;51.424;6.788;2023-02-08T09:33:47;2.20;99.90
7846;DHT22;3968;51.424;6.788;2023-02-08T09:36:14;2.20;99.90
7846;DHT22;3968;51.424;6.788;2023-02-08T09:38:40;2.20;99.90
7846;DHT22;3968;51.424;6.788;2023-02-08T09:41:10;2.30;99.90
7846;DHT22;3968;51.424;6.788;2023-02-08T09:46:38;2.40;99.90
7846;DHT22;3968;51.424;6.788;2023-02-08T09:49:10;2.50;99.90
7846;DHT22;3968;51.424;6.788;2023-02-08T09:51:43;2.50;99.90
7846;DHT22;3968;51.424;6.788;2023-02-08T09:54:19;2.60;99.90
7846;DHT22;3968;51.424;6.788;2023-02-08T09:56:48;2.60;99.90
7846;DHT22;3968;51.424;6.788;2023-02-08T09:59:22;2.70;99.90
7846;DHT22;3968;51.424;6.788;2023-02-08T10:01:55;2.80;99.90
7846;DHT22;3968;51.424;6.788;2023-02-08T10:04:39;2.80;99.10
7846;DHT22;3968;51.424;6.788;2023-02-08T10:07:09;2.90;95.00
7846;DHT22;3968;51.424;6.788;2023-02-08T10:09:35;2.90;86.00
7846;DHT22;3968;51.424;6.788;2023-02-08T10:15:01;3.10;77.90
7846;DHT22;3968;51.424;6.788;2023-02-08T10:17:37;3.20;68.20
7846;DHT22;3968;51.424;6.788;2023-02-08T10:20:42;3.20;63.30
7846;DHT22;3968;51.424;6.788;2023-02-08T10:28:25;3.50;57.90
7846;DHT22;3968;51.424;6.788;2023-02-08T10:33:31;3.60;47.70
7846;DHT22;3968;51.424;6.788;2023-02-08T10:35:59;3.70;42.70
7846;DHT22;3968;51.424;6.788;2023-02-08T10:38:32;3.70;39.60
7846;DHT22;3968;51.424;6.788;2023-02-08T10:41:03;3.80;36.40
7846;DHT22;3968;51.424;6.788;2023-02-08T10:51:28;4.00;29.80
7846;DHT22;3968;51.424;6.788;2023-02-08T10:53:55;4.00;26.80
7846;DHT22;3968;51.424;6.788;2023-02-08T10:56:46;4.10;25.50
7846;DHT22;3968;51.424;6.788;2023-02-08T10:59:21;4.10;25.60
7846;DHT22;3968;51.424;6.788;2023-02-08T11:01:49;4.20;25.10
7846;DHT22;3968;51.424;6.788;2023-02-08T11:04:16;4.20;24.10
7846;DHT22;3968;51.424;6.788;2023-02-08T11:06:43;4.30;22.30
7846;DHT22;3968;51.424;6.788;2023-02-08T11:09:29;4.30;21.60
7846;DHT22;3968;51.424;6.788;2023-02-08T11:11:57;4.40;19.00
7846;DHT22;3968;51.424;6.788;2023-02-08T11:14:28;4.40;17.10
7846;DHT22;3968;51.424;6.788;2023-02-08T11:16:57;4.50;17.10
7846;DHT22;3968;51.424;6.788;2023-02-08T11:19:30;4.50;16.60
7846;DHT22;3968;51.424;6.788;2023-02-08T11:21:57;4.60;15.90
7846;DHT22;3968;51.424;6.788;2023-02-08T11:24:32;4.60;15.40
7846;DHT22;3968;51.424;6.788;2023-02-08T11:27:33;4.70;14.30
7846;DHT22;3968;51.424;6.788;2023-02-08T11:30:19;4.70;13.90
7846;DHT22;3968;51.424;6.788;2023-02-08T11:32:47;4.80;13.70
7846;DHT22;3968;51.424;6.788;2023-02-08T11:37:47;5.00;21.60
7846;DHT22;3968;51.424;6.788;2023-02-08T11:40:20;5.30;26.20
7846;DHT22;3968;51.424;6.788;2023-02-08T11:42:47;5.40;18.70
7846;DHT22;3968;51.424;6.788;2023-02-08T11:45:24;5.50;15.70
7846;DHT22;3968;51.424;6.788;2023-02-08T11:47:52;5.50;13.90
7846;DHT22;3968;51.424;6.788;2023-02-08T11:50:34;5.50;11.20
7846;DHT22;3968;51.424;6.788;2023-02-08T11:53:24;5.50;9.60
7846;DHT22;3968;51.424;6.788;2023-02-08T11:56:26;5.50;8.70
7846;DHT22;3968;51.424;6.788;2023-02-08T12:01:32;5.50;6.70
7846;DHT22;3968;51.424;6.788;2023-02-08T12:04:00;5.50;5.80
7846;DHT22;3968;51.424;6.788;2023-02-08T12:14:51;5.50;2.50
7846;DHT22;3968;51.424;6.788;2023-02-08T12:26:11;5.60;1.00
7846;DHT22;3968;51.424;6.788;2023-02-08T12:34:53;5.70;1.00
7846;DHT22;3968;51.424;6.788;2023-02-08T12:49:09;5.80;1.00
7846;DHT22;3968;51.424;6.788;2023-02-08T12:52:19;5.80;1.00
7846;DHT22;3968;51.424;6.788;2023-02-08T12:55:11;5.80;1.00
7846;DHT22;3968;51.424;6.788;2023-02-08T12:57:41;5.90;1.00
7846;DHT22;3968;51.424;6.788;2023-02-08T13:00:21;5.80;1.00
7846;DHT22;3968;51.424;6.788;2023-02-08T13:05:50;5.90;1.00
7846;DHT22;3968;51.424;6.788;2023-02-08T13:08:38;5.90;1.00
7846;DHT22;3968;51.424;6.788;2023-02-08T13:11:19;5.90;1.00
7846;DHT22;3968;51.424;6.788;2023-02-08T13:14:02;5.90;1.00
7846;DHT22;3968;51.424;6.788;2023-02-08T13:16:36;5.90;1.00
7846;DHT22;3968;51.424;6.788;2023-02-08T13:21:42;6.00;1.00
7846;DHT22;3968;51.424;6.788;2023-02-08T13:26:49;6.00;1.00
7846;DHT22;3968;51.424;6.788;2023-02-08T13:29:18;6.00;1.00
7846;DHT22;3968;51.424;6.788;2023-02-08T13:31:48;6.10;1.00
7846;DHT22;3968;51.424;6.788;2023-02-08T13:37:03;6.10;1.00
7846;DHT22;3968;51.424;6.788;2023-02-08T13:39:40;6.10;1.00
7846;DHT22;3968;51.424;6.788;2023-02-08T13:42:17;6.10;1.00
7846;DHT22;3968;51.424;6.788;2023-02-08T13:44:49;6.10;1.00
7846;DHT22;3968;51.424;6.788;2023-02-08T13:47:42;6.10;1.00
7846;DHT22;3968;51.424;6.788;2023-02-08T13:53:07;6.20;1.00
7846;DHT22;3968;51.424;6.788;2023-02-08T14:03:31;6.20;1.00
7846;DHT22;3968;51.424;6.788;2023-02-08T14:13:49;6.20;1.00
7846;DHT22;3968;51.424;6.788;2023-02-08T14:16:34;6.30;1.00
7846;DHT22;3968;51.424;6.788;2023-02-08T14:24:31;6.30;1.00
7846;DHT22;3968;51.424;6.788;2023-02-08T14:27:14;6.30;1.00
7846;DHT22;3968;51.424;6.788;2023-02-08T14:29:41;6.30;1.00
7846;DHT22;3968;51.424;6.788;2023-02-08T14:32:07;6.30;1.00
7846;DHT22;3968;51.424;6.788;2023-02-08T14:34:39;6.30;1.00
7846;DHT22;3968;51.424;6.788;2023-02-08T14:37:27;6.40;1.00
7846;DHT22;3968;51.424;6.788;2023-02-08T14:45:49;6.30;1.00
7846;DHT22;3968;51.424;6.788;2023-02-08T14:56:24;6.30;1.00
7846;DHT22;3968;51.424;6.788;2023-02-08T14:59:15;6.30;1.00
7846;DHT22;3968;51.424;6.788;2023-02-08T15:01:49;6.30;1.00
7846;DHT22;3968;51.424;6.788;2023-02-08T15:04:16;6.30;1.00
7846;DHT22;3968;51.424;6.788;2023-02-08T15:09:39;6.20;1.00
7846;DHT22;3968;51.424;6.788;2023-02-08T15:14:39;6.20;1.00
7846;DHT22;3968;51.424;6.788;2023-02-08T15:17:05;6.20;1.00
7846;DHT22;3968;51.424;6.788;2023-02-08T15:19:34;6.20;1.00
7846;DHT22;3968;51.424;6.788;2023-02-08T15:25:01;6.20;1.00
7846;DHT22;3968;51.424;6.788;2023-02-08T15:27:32;6.20;1.00
7846;DHT22;3968;51.424;6.788;2023-02-08T15:29:58;6.20;1.00
7846;DHT22;3968;51.424;6.788;2023-02-08T15:32:26;6.10;1.00
7846;DHT22;3968;51.424;6.788;2023-02-08T15:35:03;6.10;1.00
7846;DHT22;3968;51.424;6.788;2023-02-08T15:37:32;6.20;1.00
7846;DHT22;3968;51.424;6.788;2023-02-08T15:39:59;6.20;1.00
7846;DHT22;3968;51.424;6.788;2023-02-08T15:42:31;6.10;1.00
7846;DHT22;3968;51.424;6.788;2023-02-08T15:44:57;6.10;1.00
7846;DHT22;3968;51.424;6.788;2023-02-08T15:47:31;6.10;1.00
7846;DHT22;3968;51.424;6.788;2023-02-08T15:49:57;6.10;1.00
7846;DHT22;3968;51.424;6.788;2023-02-08T15:52:28;6.10;1.00
7846;DHT22;3968;51.424;6.788;2023-02-08T15:54:55;6.00;1.00
7846;DHT22;3968;51.424;6.788;2023-02-08T15:57:47;6.00;1.00
7846;DHT22;3968;51.424;6.788;2023-02-08T16:00:25;6.00;1.00
7846;DHT22;3968;51.424;6.788;2023-02-08T16:02:58;5.90;1.00
7846;DHT22;3968;51.424;6.788;2023-02-08T16:05:27;5.90;1.00
7846;DHT22;3968;51.424;6.788;2023-02-08T16:07:54;5.80;1.00
7846;DHT22;3968;51.424;6.788;2023-02-08T16:10:32;5.80;1.00
7846;DHT22;3968;51.424;6.788;2023-02-08T16:13:01;5.80;1.00
7846;DHT22;3968;51.424;6.788;2023-02-08T16:15:43;5.80;1.00
7846;DHT22;3968;51.424;6.788;2023-02-08T16:18:32;5.70;1.00
7846;DHT22;3968;51.424;6.788;2023-02-08T16:20:59;5.70;1.00
7846;DHT22;3968;51.424;6.788;2023-02-08T16:23:28;5.60;1.10
7846;DHT22;3968;51.424;6.788;2023-02-08T16:25:55;5.60;1.20
7846;DHT22;3968;51.424;6.788;2023-02-08T16:28:27;5.60;2.90
7846;DHT22;3968;51.424;6.788;2023-02-08T16:30:55;5.50;4.00
7846;DHT22;3968;51.424;6.788;2023-02-08T16:33:22;5.50;4.80
7846;DHT22;3968;51.424;6.788;2023-02-08T16:35:51;5.40;5.50
7846;DHT22;3968;51.424;6.788;2023-02-08T16:38:21;5.40;6.30
7846;DHT22;3968;51.424;6.788;2023-02-08T16:40:50;5.30;8.60
7846;DHT22;3968;51.424;6.788;2023-02-08T16:43:30;5.30;9.30
7846;DHT22;3968;51.424;6.788;2023-02-08T16:46:18;5.20;9.60
7846;DHT22;3968;51.424;6.788;2023-02-08T16:48:54;5.20;9.70
7846;DHT22;3968;51.424;6.788;2023-02-08T16:51:23;5.10;10.70
7846;DHT22;3968;51.424;6.788;2023-02-08T16:53:54;5.10;11.50
7846;DHT22;3968;51.424;6.788;2023-02-08T16:56:20;5.00;14.00
7846;DHT22;3968;51.424;6.788;2023-02-08T16:58:46;5.00;15.50
7846;DHT22;3968;51.424;6.788;2023-02-08T17:01:13;5.00;17.40
7846;DHT22;3968;51.424;6.788;2023-02-08T17:03:39;4.90;19.50
7846;DHT22;3968;51.424;6.788;2023-02-08T17:06:05;4.90;19.90
7846;DHT22;3968;51.424;6.788;2023-02-08T17:08:31;4.80;19.20
7846;DHT22;3968;51.424;6.788;2023-02-08T17:10:57;4.80;20.30
7846;DHT22;3968;51.424;6.788;2023-02-08T17:13:23;4.80;21.90
7846;DHT22;3968;51.424;6.788;2023-02-08T17:15:52;4.70;23.30
7846;DHT22;3968;51.424;6.788;2023-02-08T17:18:18;4.70;24.60
7846;DHT22;3968;51.424;6.788;2023-02-08T17:20:44;4.60;26.80
7846;DHT22;3968;51.424;6.788;2023-02-08T17:23:10;4.60;29.40
7846;DHT22;3968;51.424;6.788;2023-02-08T17:25:36;4.60;33.20
7846;DHT22;3968;51.424;6.788;2023-02-08T17:28:04;4.50;37.10
7846;DHT22;3968;51.424;6.788;2023-02-08T17:30:37;4.50;39.90
7846;DHT22;3968;51.424;6.788;2023-02-08T17:33:03;4.40;44.10
7846;DHT22;3968;51.424;6.788;2023-02-08T17:35:31;4.40;45.30
7846;DHT22;3968;51.424;6.788;2023-02-08T17:37:57;4.30;47.90
7846;DHT22;3968;51.424;6.788;2023-02-08T17:40:29;4.30;48.30
7846;DHT22;3968;51.424;6.788;2023-02-08T17:42:59;4.30;48.30
7846;DHT22;3968;51.424;6.788;2023-02-08T17:45:26;4.20;48.50
7846;DHT22;3968;51.424;6.788;2023-02-08T17:47:53;4.10;48.00
7846;DHT22;3968;51.424;6.788;2023-02-08T17:50:19;4.10;48.50
7846;DHT22;3968;51.424;6.788;2023-02-08T17:52:45;4.00;49.40
7846;DHT22;3968;51.424;6.788;2023-02-08T17:55:12;4.00;50.50
7846;DHT22;3968;51.424;6.788;2023-02-08T17:57:40;4.00;51.50
7846;DHT22;3968;51.424;6.788;2023-02-08T18:00:11;3.90;52.00
7846;DHT22;3968;51.424;6.788;2023-02-08T18:02:42;3.90;53.90
7846;DHT22;3968;51.424;6.788;2023-02-08T18:05:07;3.80;55.80
7846;DHT22;3968;51.424;6.788;2023-02-08T18:07:33;3.80;56.30
7846;DHT22;3968;51.424;6.788;2023-02-08T18:09:58;3.70;57.30
7846;DHT22;3968;51.424;6.788;2023-02-08T18:12:24;3.70;57.90
7846;DHT22;3968;51.424;6.788;2023-02-08T18:14:50;3.70;58.40
7846;DHT22;3968;51.424;6.788;2023-02-08T18:17:15;3.60;57.90
7846;DHT22;3968;51.424;6.788;2023-02-08T18:19:41;3.60;57.20
7846;DHT22;3968;51.424;6.788;2023-02-08T18:22:07;3.50;54.10
7846;DHT22;3968;51.424;6.788;2023-02-08T18:24:33;3.50;51.10
7846;DHT22;3968;51.424;6.788;2023-02-08T18:26:59;3.50;50.00
7846;DHT22;3968;51.424;6.788;2023-02-08T18:31:55;3.50;48.10
7846;DHT22;3968;51.424;6.788;2023-02-08T18:34:21;3.50;47.70
7846;DHT22;3968;51.424;6.788;2023-02-08T18:36:47;3.40;47.10
7846;DHT22;3968;51.424;6.788;2023-02-08T18:39:13;3.40;46.50
7846;DHT22;3968;51.424;6.788;2023-02-08T18:41:40;3.40;44.70
7846;DHT22;3968;51.424;6.788;2023-02-08T18:44:08;3.40;44.00
7846;DHT22;3968;51.424;6.788;2023-02-08T18:46:34;3.40;43.20
7846;DHT22;3968;51.424;6.788;2023-02-08T18:48:59;3.30;41.40
7846;DHT22;3968;51.424;6.788;2023-02-08T18:51:25;3.30;40.00
7846;DHT22;3968;51.424;6.788;2023-02-08T18:53:52;3.20;38.60
7846;DHT22;3968;51.424;6.788;2023-02-08T18:56:20;3.30;37.60
7846;DHT22;3968;51.424;6.788;2023-02-08T18:58:48;3.20;36.90
7846;DHT22;3968;51.424;6.788;2023-02-08T19:01:16;3.30;37.10
7846;DHT22;3968;51.424;6.788;2023-02-08T19:03:42;3.20;36.60
7846;DHT22;3968;51.424;6.788;2023-02-08T19:06:14;3.20;36.90
7846;DHT22;3968;51.424;6.788;2023-02-08T19:08:41;3.20;38.00
7846;DHT22;3968;51.424;6.788;2023-02-08T19:11:16;3.20;38.80
7846;DHT22;3968;51.424;6.788;2023-02-08T19:13:43;3.20;39.10
7846;DHT22;3968;51.424;6.788;2023-02-08T19:16:09;3.20;39.20
7846;DHT22;3968;51.424;6.788;2023-02-08T19:18:35;3.10;40.00
7846;DHT22;3968;51.424;6.788;2023-02-08T19:21:09;3.10;41.40